createdAt,value
2022-10-09T00:00:32.116Z,1006.0254139039998
2022-10-09T00:01:32.092Z,1005.92382254
2022-10-09T00:02:32.204Z,1006.0254139039998
2022-10-09T00:03:32.126Z,1006.228596632
2022-10-09T00:04:32.145Z,1006.0254139039998
2022-10-09T00:05:32.169Z,1006.3301879959998
2022-10-09T00:06:32.154Z,1006.0254139039998
2022-10-09T00:07:32.111Z,1006.228596632
2022-10-09T00:08:32.129Z,1006.3301879959998
2022-10-09T00:09:32.087Z,1006.228596632
2022-10-09T00:10:32.114Z,1006.533370724
2022-10-09T00:11:32.124Z,1006.228596632
2022-10-09T00:12:32.116Z,1006.228596632
2022-10-09T00:13:32.106Z,1006.228596632
2022-10-09T00:14:32.100Z,1006.3301879959998
2022-10-09T00:15:32.127Z,1006.3301879959998
2022-10-09T00:16:32.408Z,1006.43177936
2022-10-09T00:17:32.090Z,1006.43177936
2022-10-09T00:18:32.128Z,1006.43177936
2022-10-09T00:19:32.116Z,1006.228596632
2022-10-09T00:20:32.120Z,1006.3301879959998
2022-10-09T00:21:32.095Z,1006.3301879959998
2022-10-09T00:22:32.132Z,1006.533370724
2022-10-09T00:23:32.119Z,1006.736553452
2022-10-09T00:24:32.116Z,1006.43177936
2022-10-09T00:25:32.100Z,1006.43177936
2022-10-09T00:26:32.129Z,1006.533370724
2022-10-09T00:27:32.117Z,1006.43177936
2022-10-09T00:28:36.472Z,1006.43177936
2022-10-09T00:29:32.110Z,1006.6349620879998
2022-10-09T00:30:32.210Z,1006.6349620879998
2022-10-09T00:31:32.133Z,1006.736553452
2022-10-09T00:32:32.111Z,1006.6349620879998
2022-10-09T00:33:32.096Z,1006.736553452
2022-10-09T00:34:32.140Z,1006.736553452
2022-10-09T00:35:32.111Z,1006.533370724
2022-10-09T00:36:32.138Z,1006.736553452
2022-10-09T00:37:32.105Z,1006.736553452
2022-10-09T00:38:32.121Z,1006.533370724
2022-10-09T00:39:32.122Z,1006.6349620879998
2022-10-09T00:40:32.123Z,1006.6349620879998
2022-10-09T00:41:32.089Z,1006.6349620879998
2022-10-09T00:42:32.116Z,1006.838144816
2022-10-09T00:43:32.122Z,1006.533370724
2022-10-09T00:44:32.128Z,1006.838144816
2022-10-09T00:45:32.071Z,1006.736553452
2022-10-09T00:46:32.186Z,1006.6349620879998
2022-10-09T00:47:32.112Z,1006.736553452
2022-10-09T00:48:32.126Z,1006.9397361800001
2022-10-09T00:49:32.083Z,1006.736553452
2022-10-09T00:50:32.133Z,1006.736553452
2022-10-09T00:51:32.115Z,1006.736553452
2022-10-09T00:52:32.111Z,1006.736553452
2022-10-09T00:53:32.054Z,1006.736553452
2022-10-09T00:54:32.123Z,1006.838144816
2022-10-09T00:55:32.115Z,1006.838144816
2022-10-09T00:56:32.078Z,1006.736553452
2022-10-09T00:57:32.107Z,1006.9397361800001
2022-10-09T00:58:32.122Z,1006.838144816
2022-10-09T00:59:32.143Z,1006.838144816
2022-10-09T01:00:32.117Z,1006.9397361800001
2022-10-09T01:01:32.162Z,1006.9397361800001
2022-10-09T01:02:32.189Z,1006.838144816
2022-10-09T01:03:32.110Z,1006.9397361800001
2022-10-09T01:04:32.110Z,1006.9397361800001
2022-10-09T01:05:32.125Z,1007.0074637559999
2022-10-09T01:06:32.125Z,1006.838144816
2022-10-09T01:07:32.091Z,1006.9397361800001
2022-10-09T01:08:32.083Z,1007.0074637559999
2022-10-09T01:09:32.124Z,1006.9397361800001
2022-10-09T01:10:32.157Z,1006.838144816
2022-10-09T01:11:32.158Z,1006.9397361800001
2022-10-09T01:12:32.074Z,1007.0074637559999
2022-10-09T01:13:32.181Z,1007.0074637559999
2022-10-09T01:14:32.112Z,1006.838144816
2022-10-09T01:15:32.186Z,1006.9397361800001
2022-10-09T01:16:32.103Z,1007.0074637559999
2022-10-09T01:17:32.103Z,1007.10905512
2022-10-09T01:18:32.085Z,1007.0074637559999
2022-10-09T01:19:32.141Z,1007.10905512
2022-10-09T01:20:32.092Z,1006.9397361800001
2022-10-09T01:21:32.097Z,1006.9397361800001
2022-10-09T01:22:32.124Z,1007.0074637559999
2022-10-09T01:23:32.101Z,1007.0074637559999
2022-10-09T01:24:32.096Z,1007.0074637559999
2022-10-09T01:25:32.128Z,1007.10905512
2022-10-09T01:26:32.996Z,1007.0074637559999
2022-10-09T01:27:32.123Z,1007.0074637559999
2022-10-09T01:28:32.116Z,1007.10905512
2022-10-09T01:29:32.093Z,1007.10905512
2022-10-09T01:30:32.085Z,1006.9397361800001
2022-10-09T01:31:32.204Z,1007.0074637559999
2022-10-09T01:32:32.099Z,1007.10905512
2022-10-09T01:33:32.112Z,1007.10905512
2022-10-09T01:34:32.141Z,1006.9397361800001
2022-10-09T01:35:32.160Z,1007.2106464839999
2022-10-09T01:36:32.109Z,1007.10905512
2022-10-09T01:37:32.157Z,1007.2106464839999
2022-10-09T01:38:32.141Z,1007.3122378479999
2022-10-09T01:39:32.153Z,1007.0074637559999
2022-10-09T01:40:32.215Z,1007.2106464839999
2022-10-09T01:41:32.231Z,1007.2106464839999
2022-10-09T01:42:32.257Z,1007.10905512
2022-10-09T01:43:32.261Z,1007.10905512
2022-10-09T01:44:32.178Z,1007.3122378479999
2022-10-09T01:45:32.215Z,1007.2106464839999
2022-10-09T01:46:32.377Z,1007.0074637559999
2022-10-09T01:47:32.209Z,1007.2106464839999
2022-10-09T01:48:32.324Z,1007.3122378479999
2022-10-09T01:49:32.128Z,1007.2106464839999
2022-10-09T01:50:32.120Z,1007.2106464839999
2022-10-09T01:51:32.120Z,1007.413829212
2022-10-09T01:52:32.074Z,1007.413829212
2022-10-09T01:53:32.104Z,1007.2106464839999
2022-10-09T01:54:32.068Z,1007.413829212
2022-10-09T01:55:32.119Z,1007.413829212
2022-10-09T01:56:32.137Z,1007.413829212
2022-10-09T01:57:32.117Z,1007.3122378479999
2022-10-09T01:58:32.094Z,1007.413829212
2022-10-09T01:59:32.127Z,1007.5154205759999
2022-10-09T02:00:32.137Z,1007.718603304
2022-10-09T02:01:32.173Z,1007.3122378479999
2022-10-09T02:02:32.124Z,1007.413829212
2022-10-09T02:03:32.078Z,1007.3122378479999
2022-10-09T02:04:32.106Z,1007.5154205759999
2022-10-09T02:05:32.156Z,1007.5154205759999
2022-10-09T02:06:32.090Z,1007.5154205759999
2022-10-09T02:07:32.131Z,1007.5154205759999
2022-10-09T02:08:32.119Z,1007.5154205759999
2022-10-09T02:09:32.115Z,1007.6170119399999
2022-10-09T02:10:32.098Z,1007.5154205759999
2022-10-09T02:11:32.140Z,1007.413829212
2022-10-09T02:12:32.123Z,1007.718603304
2022-10-09T02:13:32.110Z,1007.6170119399999
2022-10-09T02:14:32.089Z,1007.6170119399999
2022-10-09T02:15:32.159Z,1007.921786032
2022-10-09T02:16:36.823Z,1007.718603304
2022-10-09T02:17:32.107Z,1007.718603304
2022-10-09T02:18:32.093Z,1007.6170119399999
2022-10-09T02:19:32.127Z,1007.8201946679999
2022-10-09T02:20:32.111Z,1007.718603304
2022-10-09T02:21:32.109Z,1008.023377396
2022-10-09T02:22:32.122Z,1007.8201946679999
2022-10-09T02:23:32.084Z,1007.718603304
2022-10-09T02:24:32.117Z,1007.8201946679999
2022-10-09T02:25:32.122Z,1007.718603304
2022-10-09T02:26:32.089Z,1007.8201946679999
2022-10-09T02:27:32.090Z,1007.8201946679999
2022-10-09T02:28:32.178Z,1007.921786032
2022-10-09T02:29:32.125Z,1007.921786032
2022-10-09T02:30:32.115Z,1008.023377396
2022-10-09T02:31:32.222Z,1008.023377396
2022-10-09T02:32:32.104Z,1008.1249687599999
2022-10-09T02:33:32.114Z,1007.718603304
2022-10-09T02:34:32.082Z,1007.921786032
2022-10-09T02:35:32.108Z,1008.023377396
2022-10-09T02:36:32.205Z,1007.921786032
2022-10-09T02:37:32.091Z,1008.023377396
2022-10-09T02:38:32.075Z,1008.226560124
2022-10-09T02:39:32.131Z,1008.226560124
2022-10-09T02:40:32.082Z,1008.226560124
2022-10-09T02:41:32.105Z,1008.226560124
2022-10-09T02:42:32.073Z,1007.921786032
2022-10-09T02:43:32.103Z,1008.328151488
2022-10-09T02:44:32.118Z,1008.226560124
2022-10-09T02:45:32.099Z,1008.226560124
2022-10-09T02:46:32.163Z,1008.1249687599999
2022-10-09T02:47:32.214Z,1008.328151488
2022-10-09T02:48:32.093Z,1008.226560124
2022-10-09T02:49:32.129Z,1008.023377396
2022-10-09T02:50:32.089Z,1008.429742852
2022-10-09T02:51:32.096Z,1008.226560124
2022-10-09T02:52:32.129Z,1008.429742852
2022-10-09T02:53:32.061Z,1008.226560124
2022-10-09T02:54:32.090Z,1008.429742852
2022-10-09T02:55:32.106Z,1008.429742852
2022-10-09T02:56:35.528Z,1008.328151488
2022-10-09T02:57:32.106Z,1008.429742852
2022-10-09T02:58:32.104Z,1008.63292558
2022-10-09T02:59:32.090Z,1008.429742852
2022-10-09T03:00:32.074Z,1008.328151488
2022-10-09T03:01:32.196Z,1008.328151488
2022-10-09T03:02:32.425Z,1008.429742852
2022-10-09T03:03:32.103Z,1008.531334216
2022-10-09T03:04:32.121Z,1008.328151488
2022-10-09T03:05:32.111Z,1008.328151488
2022-10-09T03:06:32.068Z,1008.328151488
2022-10-09T03:07:32.121Z,1008.429742852
2022-10-09T03:08:32.221Z,1008.531334216
2022-10-09T03:09:33.850Z,1008.531334216
2022-10-09T03:10:32.185Z,1008.531334216
2022-10-09T03:11:32.257Z,1008.328151488
2022-10-09T03:12:32.248Z,1008.429742852
2022-10-09T03:13:32.224Z,1008.531334216
2022-10-09T03:14:32.231Z,1008.63292558
2022-10-09T03:15:32.368Z,1008.63292558
2022-10-09T03:16:32.180Z,1008.429742852
2022-10-09T03:17:32.186Z,1008.63292558
2022-10-09T03:18:32.111Z,1008.63292558
2022-10-09T03:19:32.125Z,1008.63292558
2022-10-09T03:20:32.301Z,1008.531334216
2022-10-09T03:21:32.225Z,1008.531334216
2022-10-09T03:22:32.183Z,1008.429742852
2022-10-09T03:23:32.196Z,1008.429742852
2022-10-09T03:24:32.227Z,1008.531334216
2022-10-09T03:25:32.254Z,1008.531334216
2022-10-09T03:26:32.064Z,1008.63292558
2022-10-09T03:27:32.246Z,1008.63292558
2022-10-09T03:28:32.327Z,1008.531334216
2022-10-09T03:29:32.157Z,1008.836108308
2022-10-09T03:30:32.263Z,1008.63292558
2022-10-09T03:31:51.944Z,1008.531334216
2022-10-09T03:32:32.383Z,1008.734516944
2022-10-09T03:33:32.114Z,1008.734516944
2022-10-09T03:34:32.077Z,1008.734516944
2022-10-09T03:35:32.090Z,1008.937699672
2022-10-09T03:36:32.077Z,1008.734516944
2022-10-09T03:37:32.110Z,1008.836108308
2022-10-09T03:38:32.050Z,1008.734516944
2022-10-09T03:39:32.105Z,1008.836108308
2022-10-09T03:40:32.327Z,1008.734516944
2022-10-09T03:41:32.231Z,1008.836108308
2022-10-09T03:42:32.178Z,1008.937699672
2022-10-09T03:43:32.087Z,1008.836108308
2022-10-09T03:44:32.149Z,1008.734516944
2022-10-09T03:45:32.098Z,1008.836108308
2022-10-09T03:46:32.165Z,1008.937699672
2022-10-09T03:47:32.338Z,1008.836108308
2022-10-09T03:48:32.268Z,1008.836108308
2022-10-09T03:49:32.092Z,1008.937699672
2022-10-09T03:50:32.070Z,1009.1070186119999
2022-10-09T03:51:32.104Z,1008.937699672
2022-10-09T03:52:32.093Z,1009.0392910360001
2022-10-09T03:53:32.074Z,1008.836108308
2022-10-09T03:54:32.106Z,1009.208609976
2022-10-09T03:55:32.106Z,1009.0392910360001
2022-10-09T03:56:32.081Z,1008.836108308
2022-10-09T03:57:32.089Z,1008.836108308
2022-10-09T03:58:32.223Z,1009.1070186119999
2022-10-09T03:59:32.113Z,1009.0392910360001
2022-10-09T04:00:32.159Z,1008.937699672
2022-10-09T04:01:32.087Z,1009.0392910360001
2022-10-09T04:02:32.165Z,1008.937699672
2022-10-09T04:03:32.093Z,1009.1070186119999
2022-10-09T04:04:32.089Z,1008.937699672
2022-10-09T04:05:32.098Z,1009.0392910360001
2022-10-09T04:06:32.096Z,1008.836108308
2022-10-09T04:07:32.083Z,1009.0392910360001
2022-10-09T04:08:32.071Z,1009.208609976
2022-10-09T04:09:32.115Z,1009.0392910360001
2022-10-09T04:10:32.113Z,1008.937699672
2022-10-09T04:11:32.098Z,1008.836108308
2022-10-09T04:12:32.056Z,1009.1070186119999
2022-10-09T04:13:32.126Z,1009.0392910360001
2022-10-09T04:14:32.200Z,1009.0392910360001
2022-10-09T04:15:32.112Z,1009.0392910360001
2022-10-09T04:16:32.207Z,1009.208609976
2022-10-09T04:17:32.131Z,1009.208609976
2022-10-09T04:18:32.119Z,1009.1070186119999
2022-10-09T04:19:32.098Z,1009.3102013399999
2022-10-09T04:20:32.090Z,1009.208609976
2022-10-09T04:21:32.104Z,1009.1070186119999
2022-10-09T04:22:32.098Z,1009.208609976
2022-10-09T04:23:32.096Z,1009.0392910360001
2022-10-09T04:24:32.067Z,1009.3102013399999
2022-10-09T04:25:32.189Z,1009.513384068
2022-10-09T04:26:32.111Z,1009.3102013399999
2022-10-09T04:27:32.106Z,1009.513384068
2022-10-09T04:28:32.253Z,1009.3102013399999
2022-10-09T04:29:32.115Z,1009.3102013399999
2022-10-09T04:30:32.186Z,1009.4117927039999
2022-10-09T04:31:32.166Z,1009.513384068
2022-10-09T04:32:32.056Z,1009.4117927039999
2022-10-09T04:33:32.071Z,1009.4117927039999
2022-10-09T04:34:32.088Z,1009.513384068
2022-10-09T04:35:32.085Z,1009.513384068
2022-10-09T04:36:32.079Z,1009.4117927039999
2022-10-09T04:37:32.112Z,1009.208609976
2022-10-09T04:38:32.147Z,1009.513384068
2022-10-09T04:39:32.068Z,1009.4117927039999
2022-10-09T04:40:32.058Z,1009.4117927039999
2022-10-09T04:41:35.982Z,1009.6149754319999
2022-10-09T04:42:32.116Z,1009.4117927039999
2022-10-09T04:43:32.063Z,1009.513384068
2022-10-09T04:44:32.047Z,1009.513384068
2022-10-09T04:45:32.155Z,1009.513384068
2022-10-09T04:46:32.091Z,1009.513384068
2022-10-09T04:47:32.096Z,1009.81815816
2022-10-09T04:48:32.056Z,1009.81815816
2022-10-09T04:49:32.110Z,1009.7165667959999
2022-10-09T04:50:32.197Z,1009.7165667959999
2022-10-09T04:51:32.084Z,1009.7165667959999
2022-10-09T04:52:32.040Z,1009.919749524
2022-10-09T04:53:32.089Z,1009.7165667959999
2022-10-09T04:54:32.097Z,1009.513384068
2022-10-09T04:55:32.101Z,1009.7165667959999
2022-10-09T04:56:32.058Z,1009.81815816
2022-10-09T04:57:32.089Z,1009.919749524
2022-10-09T04:58:32.093Z,1009.81815816
2022-10-09T04:59:32.107Z,1009.7165667959999
2022-10-09T05:00:32.075Z,1009.81815816
2022-10-09T05:01:37.231Z,1009.7165667959999
2022-10-09T05:02:32.173Z,1009.919749524
2022-10-09T05:03:32.105Z,1009.919749524
2022-10-09T05:04:32.069Z,1009.81815816
2022-10-09T05:05:32.111Z,1009.81815816
2022-10-09T05:06:32.065Z,1010.0213408879999
2022-10-09T05:07:32.226Z,1009.919749524
2022-10-09T05:08:32.062Z,1010.122932252
2022-10-09T05:09:32.090Z,1009.919749524
2022-10-09T05:10:32.188Z,1009.7165667959999
2022-10-09T05:11:32.092Z,1010.224523616
2022-10-09T05:12:32.055Z,1009.919749524
2022-10-09T05:13:32.163Z,1010.224523616
2022-10-09T05:14:32.107Z,1009.919749524
2022-10-09T05:15:32.130Z,1010.3261149799999
2022-10-09T05:16:33.678Z,1010.0213408879999
2022-10-09T05:17:32.162Z,1010.0213408879999
2022-10-09T05:18:32.112Z,1010.0213408879999
2022-10-09T05:19:32.121Z,1010.122932252
2022-10-09T05:20:32.066Z,1010.122932252
2022-10-09T05:21:32.099Z,1010.224523616
2022-10-09T05:22:32.257Z,1010.122932252
2022-10-09T05:23:32.109Z,1009.919749524
2022-10-09T05:24:32.081Z,1010.122932252
2022-10-09T05:25:32.090Z,1009.919749524
2022-10-09T05:26:32.108Z,1009.919749524
2022-10-09T05:27:32.109Z,1010.122932252
2022-10-09T05:28:32.126Z,1010.0213408879999
2022-10-09T05:29:32.103Z,1010.224523616
2022-10-09T05:30:32.552Z,1010.122932252
2022-10-09T05:31:32.129Z,1010.0213408879999
2022-10-09T05:32:32.078Z,1009.919749524
2022-10-09T05:33:32.062Z,1010.0213408879999
2022-10-09T05:34:32.096Z,1010.122932252
2022-10-09T05:35:32.134Z,1010.3261149799999
2022-10-09T05:36:32.062Z,1010.122932252
2022-10-09T05:37:32.098Z,1010.3261149799999
2022-10-09T05:38:32.118Z,1010.122932252
2022-10-09T05:39:32.083Z,1010.4277063440001
2022-10-09T05:40:32.053Z,1010.3261149799999
2022-10-09T05:41:32.140Z,1010.3261149799999
2022-10-09T05:42:32.097Z,1010.122932252
2022-10-09T05:43:32.083Z,1010.3261149799999
2022-10-09T05:44:32.050Z,1010.5292977080001
2022-10-09T05:45:32.123Z,1010.3261149799999
2022-10-09T05:46:32.081Z,1010.224523616
2022-10-09T05:47:32.081Z,1010.224523616
2022-10-09T05:48:32.065Z,1010.4277063440001
2022-10-09T05:49:32.104Z,1010.4277063440001
2022-10-09T05:50:32.098Z,1010.224523616
2022-10-09T05:51:32.089Z,1010.3261149799999
2022-10-09T05:52:32.070Z,1010.4277063440001
2022-10-09T05:53:32.072Z,1010.3261149799999
2022-10-09T05:54:32.162Z,1010.122932252
2022-10-09T05:55:32.065Z,1010.122932252
2022-10-09T05:56:32.082Z,1010.122932252
2022-10-09T05:57:32.089Z,1010.3261149799999
2022-10-09T05:58:32.087Z,1010.3261149799999
2022-10-09T05:59:32.090Z,1010.224523616
2022-10-09T06:00:32.063Z,1010.224523616
2022-10-09T06:01:32.147Z,1010.224523616
2022-10-09T06:02:32.140Z,1010.224523616
2022-10-09T06:03:32.213Z,1010.224523616
2022-10-09T06:04:32.077Z,1010.3261149799999
2022-10-09T06:05:32.057Z,1010.3261149799999
2022-10-09T06:06:32.086Z,1010.4277063440001
2022-10-09T06:07:32.121Z,1010.3261149799999
2022-10-09T06:08:32.099Z,1010.630889072
2022-10-09T06:09:32.073Z,1010.7324804360001
2022-10-09T06:10:32.606Z,1010.630889072
2022-10-09T06:11:32.074Z,1010.630889072
2022-10-09T06:12:32.083Z,1010.630889072
2022-10-09T06:13:32.050Z,1010.5292977080001
2022-10-09T06:14:32.282Z,1010.4277063440001
2022-10-09T06:15:32.093Z,1010.5292977080001
2022-10-09T06:16:32.143Z,1010.630889072
2022-10-09T06:17:32.041Z,1010.5292977080001
2022-10-09T06:18:32.075Z,1010.630889072
2022-10-09T06:19:32.083Z,1010.630889072
2022-10-09T06:20:32.081Z,1010.7324804360001
2022-10-09T06:21:32.088Z,1010.5292977080001
2022-10-09T06:22:32.102Z,1010.630889072
2022-10-09T06:23:32.098Z,1010.5292977080001
2022-10-09T06:24:32.077Z,1010.7324804360001
2022-10-09T06:25:32.089Z,1010.8340718000001
2022-10-09T06:26:32.237Z,1010.7324804360001
2022-10-09T06:27:32.130Z,1010.8340718000001
2022-10-09T06:28:32.131Z,1010.8340718000001
2022-10-09T06:29:32.056Z,1010.8340718000001
2022-10-09T06:30:37.745Z,1011.0372545280001
2022-10-09T06:31:32.108Z,1010.935663164
2022-10-09T06:32:32.088Z,1011.1388458920001
2022-10-09T06:33:32.058Z,1011.2404372559998
2022-10-09T06:34:32.114Z,1010.935663164
2022-10-09T06:35:32.071Z,1010.8340718000001
2022-10-09T06:36:32.103Z,1010.7324804360001
2022-10-09T06:37:32.058Z,1010.935663164
2022-10-09T06:38:32.138Z,1011.0372545280001
2022-10-09T06:39:32.093Z,1010.935663164
2022-10-09T06:40:32.094Z,1010.935663164
2022-10-09T06:41:32.160Z,1010.935663164
2022-10-09T06:42:33.975Z,1011.1388458920001
2022-10-09T06:43:45.291Z,1011.1388458920001
2022-10-09T06:44:49.292Z,1011.0372545280001
2022-10-09T06:45:53.273Z,1011.0372545280001
2022-10-09T06:46:57.303Z,1011.0372545280001
2022-10-09T06:48:01.283Z,1010.935663164
2022-10-09T06:49:05.312Z,1011.0372545280001
2022-10-09T06:50:09.278Z,1011.1388458920001
2022-10-09T06:51:13.301Z,1011.1388458920001
2022-10-09T06:52:17.282Z,1011.1388458920001
2022-10-09T06:53:21.314Z,1011.1388458920001
2022-10-09T06:54:25.360Z,1011.1388458920001
2022-10-09T06:55:29.292Z,1010.8340718000001
2022-10-09T06:56:32.064Z,1011.0372545280001
2022-10-09T06:57:32.094Z,1011.1388458920001
2022-10-09T06:58:32.141Z,1011.2404372559998
2022-10-09T06:59:32.084Z,1011.2404372559998
2022-10-09T07:00:32.074Z,1011.2404372559998
2022-10-09T07:01:32.426Z,1011.409756196
2022-10-09T07:02:32.185Z,1011.0372545280001
2022-10-09T07:03:32.048Z,1011.2404372559998
2022-10-09T07:04:32.051Z,1011.2404372559998
2022-10-09T07:05:32.080Z,1011.308164832
2022-10-09T07:06:32.107Z,1011.409756196
2022-10-09T07:07:32.093Z,1011.2404372559998
2022-10-09T07:08:32.069Z,1011.308164832
2022-10-09T07:09:32.082Z,1011.308164832
2022-10-09T07:10:32.103Z,1011.409756196
2022-10-09T07:11:32.183Z,1011.409756196
2022-10-09T07:12:32.073Z,1011.409756196
2022-10-09T07:13:32.099Z,1011.409756196
2022-10-09T07:14:32.101Z,1011.51134756
2022-10-09T07:15:32.203Z,1011.51134756
2022-10-09T07:16:32.058Z,1011.51134756
2022-10-09T07:17:32.103Z,1011.51134756
2022-10-09T07:18:32.064Z,1011.51134756
2022-10-09T07:19:32.083Z,1011.51134756
2022-10-09T07:20:32.059Z,1011.612938924
2022-10-09T07:21:32.083Z,1011.612938924
2022-10-09T07:22:32.078Z,1011.612938924
2022-10-09T07:23:32.059Z,1011.51134756
2022-10-09T07:24:32.108Z,1011.51134756
2022-10-09T07:25:32.098Z,1011.7145302880001
2022-10-09T07:26:32.169Z,1011.7145302880001
2022-10-09T07:27:32.038Z,1011.612938924
2022-10-09T07:28:32.129Z,1011.612938924
2022-10-09T07:29:32.051Z,1011.51134756
2022-10-09T07:30:32.108Z,1011.7145302880001
2022-10-09T07:31:32.136Z,1011.612938924
2022-10-09T07:32:32.059Z,1011.7145302880001
2022-10-09T07:33:32.066Z,1011.816121652
2022-10-09T07:34:32.084Z,1011.612938924
2022-10-09T07:35:33.010Z,1011.9177130160001
2022-10-09T07:36:33.276Z,1011.7145302880001
2022-10-09T07:37:37.222Z,1011.7145302880001
2022-10-09T07:38:41.259Z,1011.7145302880001
2022-10-09T07:39:45.276Z,1011.612938924
2022-10-09T07:40:49.270Z,1011.816121652
2022-10-09T07:41:53.210Z,1011.816121652
2022-10-09T07:42:57.270Z,1011.7145302880001
2022-10-09T07:44:01.264Z,1011.612938924
2022-10-09T07:45:05.370Z,1011.816121652
2022-10-09T07:46:09.299Z,1011.816121652
2022-10-09T07:47:13.246Z,1012.0193043800001
2022-10-09T07:48:17.273Z,1012.0193043800001
2022-10-09T07:49:21.263Z,1012.2224871079999
2022-10-09T07:50:25.316Z,1011.9177130160001
2022-10-09T07:51:29.305Z,1011.816121652
2022-10-09T07:52:32.065Z,1011.816121652
2022-10-09T07:53:35.822Z,1011.9177130160001
2022-10-09T07:54:32.071Z,1011.9177130160001
2022-10-09T07:55:32.166Z,1011.7145302880001
2022-10-09T07:56:32.067Z,1012.0193043800001
2022-10-09T07:57:32.088Z,1011.7145302880001
2022-10-09T07:58:32.051Z,1011.816121652
2022-10-09T07:59:32.094Z,1012.0193043800001
2022-10-09T08:00:32.141Z,1012.0193043800001
2022-10-09T08:01:32.113Z,1012.0193043800001
2022-10-09T08:02:32.118Z,1012.2224871079999
2022-10-09T08:03:32.065Z,1011.816121652
2022-10-09T08:04:32.067Z,1012.120895744
2022-10-09T08:05:32.062Z,1012.0193043800001
2022-10-09T08:06:32.035Z,1012.0193043800001
2022-10-09T08:07:34.925Z,1011.816121652
2022-10-09T08:08:32.088Z,1012.0193043800001
2022-10-09T08:09:32.094Z,1012.0193043800001
2022-10-09T08:10:32.036Z,1012.0193043800001
2022-10-09T08:11:32.186Z,1012.120895744
2022-10-09T08:12:32.108Z,1012.120895744
2022-10-09T08:13:32.081Z,1012.2224871079999
2022-10-09T08:14:32.040Z,1012.120895744
2022-10-09T08:15:32.169Z,1012.0193043800001
2022-10-09T08:16:32.084Z,1012.0193043800001
2022-10-09T08:17:32.065Z,1011.9177130160001
2022-10-09T08:18:32.048Z,1012.2224871079999
2022-10-09T08:19:32.101Z,1012.0193043800001
2022-10-09T08:20:32.087Z,1012.2224871079999
2022-10-09T08:21:32.080Z,1012.0193043800001
2022-10-09T08:22:32.054Z,1012.120895744
2022-10-09T08:23:32.079Z,1012.0193043800001
2022-10-09T08:24:32.055Z,1012.0193043800001
2022-10-09T08:25:32.063Z,1012.120895744
2022-10-09T08:26:32.078Z,1012.2224871079999
2022-10-09T08:27:32.081Z,1012.324078472
2022-10-09T08:28:32.171Z,1012.120895744
2022-10-09T08:29:33.795Z,1012.120895744
2022-10-09T08:30:32.059Z,1012.2224871079999
2022-10-09T08:31:32.288Z,1012.2224871079999
2022-10-09T08:32:32.070Z,1012.2224871079999
2022-10-09T08:33:32.054Z,1012.2224871079999
2022-10-09T08:34:32.050Z,1012.120895744
2022-10-09T08:35:34.525Z,1012.2224871079999
2022-10-09T08:36:32.070Z,1012.120895744
2022-10-09T08:37:32.079Z,1012.2224871079999
2022-10-09T08:38:46.610Z,1012.324078472
2022-10-09T08:39:32.078Z,1012.4256698359999
2022-10-09T08:40:32.105Z,1012.324078472
2022-10-09T08:41:32.111Z,1012.2224871079999
2022-10-09T08:42:32.043Z,1012.120895744
2022-10-09T08:43:32.070Z,1012.324078472
2022-10-09T08:44:32.065Z,1012.2224871079999
2022-10-09T08:45:32.077Z,1012.324078472
2022-10-09T08:46:32.070Z,1012.324078472
2022-10-09T08:47:32.140Z,1012.2224871079999
2022-10-09T08:48:32.061Z,1012.2224871079999
2022-10-09T08:49:32.075Z,1012.4256698359999
2022-10-09T08:50:32.026Z,1012.4256698359999
2022-10-09T08:51:32.074Z,1012.2224871079999
2022-10-09T08:52:32.168Z,1012.324078472
2022-10-09T08:53:32.060Z,1012.324078472
2022-10-09T08:54:32.066Z,1012.120895744
2022-10-09T08:55:32.054Z,1012.324078472
2022-10-09T08:56:32.058Z,1012.324078472
2022-10-09T08:57:32.037Z,1012.2224871079999
2022-10-09T08:58:32.091Z,1012.2224871079999
2022-10-09T08:59:32.043Z,1012.4256698359999
2022-10-09T09:00:32.056Z,1012.5272611999999
2022-10-09T09:01:32.104Z,1012.4256698359999
2022-10-09T09:02:32.132Z,1012.4256698359999
2022-10-09T09:03:32.067Z,1012.4256698359999
2022-10-09T09:04:32.071Z,1012.2224871079999
2022-10-09T09:05:32.044Z,1012.628852564
2022-10-09T09:06:32.087Z,1012.628852564
2022-10-09T09:07:32.159Z,1012.4256698359999
2022-10-09T09:08:32.062Z,1012.4256698359999
2022-10-09T09:09:32.067Z,1012.5272611999999
2022-10-09T09:10:32.038Z,1012.4256698359999
2022-10-09T09:11:32.056Z,1012.4256698359999
2022-10-09T09:12:32.053Z,1012.324078472
2022-10-09T09:13:32.052Z,1012.5272611999999
2022-10-09T09:14:32.091Z,1012.7304439279999
2022-10-09T09:15:32.048Z,1012.324078472
2022-10-09T09:16:32.094Z,1012.4256698359999
2022-10-09T09:17:32.092Z,1012.7304439279999
2022-10-09T09:18:32.109Z,1012.628852564
2022-10-09T09:19:32.079Z,1012.628852564
2022-10-09T09:20:32.074Z,1012.4256698359999
2022-10-09T09:21:32.029Z,1012.7304439279999
2022-10-09T09:22:32.056Z,1012.4256698359999
2022-10-09T09:23:32.056Z,1012.4256698359999
2022-10-09T09:24:32.179Z,1012.324078472
2022-10-09T09:25:32.030Z,1012.628852564
2022-10-09T09:26:32.062Z,1012.628852564
2022-10-09T09:27:32.169Z,1012.5272611999999
2022-10-09T09:28:32.098Z,1012.628852564
2022-10-09T09:29:32.030Z,1012.628852564
2022-10-09T09:30:32.065Z,1012.628852564
2022-10-09T09:31:32.152Z,1012.2224871079999
2022-10-09T09:32:32.067Z,1012.7304439279999
2022-10-09T09:33:36.155Z,1012.7304439279999
2022-10-09T09:34:32.058Z,1012.5272611999999
2022-10-09T09:35:32.132Z,1012.7304439279999